DTA41 FNBJ-FNLU
Flight info
| Callsign | DTA41 |
|---|---|
| Flight time | 0h 8m |
| Altitude | 3500 |
| Route | VBJ DCT VNA |
| Aircraft | B738/M-SDE2E3FGHIRWXY/LB1 |
Departure
| Time | 2026-04-20 17:29 |
|---|---|
| Airport | Dr. Antonio Agostinho Neto International Airport (FNBJ) |
Arrival
| Time | 2026-04-20 17:37 |
|---|---|
| Airport | Quatro de Fevereiro International Airport (FNLU) |
| Time | Latitude | Longitude | Altitude | Speed | Heading |
|---|---|---|---|---|---|
| 2026-04-20 17:19 | -9.04758 | 13.51385 | 570 ft | 0 kts | 323° |
| 2026-04-20 17:22 | -9.04760 | 13.51387 | 562 ft | 3 kts | 323° |
| 2026-04-20 17:22 | -9.04781 | 13.51403 | 575 ft | 4 kts | 323° |
| 2026-04-20 17:23 | -9.04799 | 13.51419 | 572 ft | 4 kts | 289° |
| 2026-04-20 17:23 | -9.04796 | 13.51440 | 572 ft | 4 kts | 233° |
| 2026-04-20 17:23 | -9.04784 | 13.51456 | 574 ft | 0 kts | 233° |
| 2026-04-20 17:26 | -9.04789 | 13.51449 | 577 ft | 5 kts | 233° |
| 2026-04-20 17:26 | -9.04832 | 13.51396 | 572 ft | 14 kts | 230° |
| 2026-04-20 17:26 | -9.04935 | 13.51391 | 575 ft | 21 kts | 142° |
| 2026-04-20 17:27 | -9.04967 | 13.51527 | 578 ft | 26 kts | 54° |
| 2026-04-20 17:27 | -9.04862 | 13.51671 | 576 ft | 25 kts | 54° |
| 2026-04-20 17:27 | -9.04801 | 13.51799 | 574 ft | 14 kts | 117° |
| 2026-04-20 17:27 | -9.04873 | 13.51861 | 573 ft | 13 kts | 141° |
| 2026-04-20 17:28 | -9.04947 | 13.51865 | 576 ft | 13 kts | 230° |
| 2026-04-20 17:28 | -9.05081 | 13.51684 | 573 ft | 64 kts | 233° |
| 2026-04-20 17:28 | -9.05483 | 13.51143 | 576 ft | 126 kts | 233° |
| 2026-04-20 17:28 | -9.06099 | 13.50311 | 708 ft | 161 kts | 233° |
| 2026-04-20 17:29 | -9.06788 | 13.49371 | 1196 ft | 174 kts | 232° |
| 2026-04-20 17:29 | -9.07433 | 13.48275 | 1750 ft | 186 kts | 248° |
| 2026-04-20 17:29 | -9.07378 | 13.46974 | 2430 ft | 200 kts | 290° |
| 2026-04-20 17:29 | -9.06399 | 13.45908 | 2836 ft | 221 kts | 332° |
| 2026-04-20 17:30 | -9.04884 | 13.45491 | 3089 ft | 236 kts | 353° |
| 2026-04-20 17:30 | -9.03239 | 13.45291 | 3471 ft | 242 kts | 355° |
| 2026-04-20 17:30 | -9.01528 | 13.45084 | 3731 ft | 256 kts | 354° |
| 2026-04-20 17:30 | -8.99720 | 13.44827 | 3873 ft | 274 kts | 354° |
| 2026-04-20 17:31 | -8.97836 | 13.44525 | 3912 ft | 272 kts | 352° |
| 2026-04-20 17:31 | -8.96009 | 13.44039 | 3947 ft | 276 kts | 338° |
| 2026-04-20 17:31 | -8.94269 | 13.43180 | 3956 ft | 280 kts | 335° |
| 2026-04-20 17:31 | -8.92532 | 13.42293 | 3945 ft | 280 kts | 335° |
| 2026-04-20 17:32 | -8.90804 | 13.41428 | 3939 ft | 271 kts | 336° |
| 2026-04-20 17:32 | -8.89157 | 13.40619 | 3932 ft | 256 kts | 336° |
| 2026-04-20 17:32 | -8.87593 | 13.39862 | 3921 ft | 243 kts | 335° |
| 2026-04-20 17:32 | -8.86108 | 13.39149 | 3934 ft | 230 kts | 336° |
| 2026-04-20 17:33 | -8.84669 | 13.38461 | 3945 ft | 229 kts | 337° |
| 2026-04-20 17:33 | -8.83206 | 13.37765 | 3861 ft | 239 kts | 336° |
| 2026-04-20 17:33 | -8.81682 | 13.37041 | 3683 ft | 241 kts | 336° |
| 2026-04-20 17:33 | -8.80175 | 13.36324 | 3459 ft | 240 kts | 336° |
| 2026-04-20 17:34 | -8.78719 | 13.35508 | 3216 ft | 240 kts | 318° |
| 2026-04-20 17:34 | -8.77908 | 13.34083 | 3023 ft | 236 kts | 276° |
| 2026-04-20 17:34 | -8.78150 | 13.32523 | 2965 ft | 222 kts | 243° |
| 2026-04-20 17:34 | -8.78832 | 13.31143 | 2963 ft | 214 kts | 235° |
| 2026-04-20 17:35 | -8.79748 | 13.30001 | 2683 ft | 209 kts | 219° |
| 2026-04-20 17:35 | -8.80821 | 13.28997 | 2089 ft | 212 kts | 223° |
| 2026-04-20 17:35 | -8.81774 | 13.27893 | 1646 ft | 203 kts | 229° |
| 2026-04-20 17:35 | -8.82616 | 13.26806 | 1332 ft | 182 kts | 228° |
| 2026-04-20 17:36 | -8.83376 | 13.25996 | 980 ft | 144 kts | 224° |
| 2026-04-20 17:36 | -8.84045 | 13.25310 | 699 ft | 135 kts | 225° |
| 2026-04-20 17:36 | -8.84689 | 13.24592 | 520 ft | 141 kts | 223° |
| 2026-04-20 17:36 | -8.85373 | 13.23856 | 317 ft | 144 kts | 225° |
| 2026-04-20 17:37 | -8.86028 | 13.23161 | 258 ft | 124 kts | 227° |
| 2026-04-20 17:37 | -8.86511 | 13.22639 | 259 ft | 79 kts | 227° |
| 2026-04-20 17:37 | -8.86787 | 13.22345 | 258 ft | 38 kts | 227° |
| 2026-04-20 17:37 | -8.86862 | 13.22256 | 257 ft | 7 kts | 263° |
| 2026-04-20 17:38 | -8.86829 | 13.22216 | 256 ft | 8 kts | 319° |
| 2026-04-20 17:38 | -8.86777 | 13.22210 | 257 ft | 8 kts | 14° |
| 2026-04-20 17:38 | -8.86742 | 13.22250 | 257 ft | 8 kts | 49° |
| 2026-04-20 17:38 | -8.86712 | 13.22293 | 258 ft | 8 kts | 75° |
| 2026-04-20 17:39 | -8.86710 | 13.22346 | 258 ft | 8 kts | 90° |
| 2026-04-20 17:39 | -8.86710 | 13.22399 | 258 ft | 7 kts | 90° |
| 2026-04-20 17:39 | -8.86711 | 13.22450 | 258 ft | 7 kts | 90° |
| 2026-04-20 17:39 | -8.86676 | 13.22480 | 258 ft | 8 kts | 19° |
| 2026-04-20 17:40 | -8.86624 | 13.22510 | 258 ft | 13 kts | 52° |
| 2026-04-20 17:40 | -8.86531 | 13.22617 | 259 ft | 25 kts | 45° |
| 2026-04-20 17:40 | -8.86388 | 13.22677 | 257 ft | 22 kts | 1° |
| 2026-04-20 17:40 | -8.86240 | 13.22692 | 258 ft | 21 kts | 21° |
| 2026-04-20 17:41 | -8.86131 | 13.22796 | 258 ft | 22 kts | 46° |
| 2026-04-20 17:41 | -8.86022 | 13.22911 | 258 ft | 23 kts | 47° |
| 2026-04-20 17:41 | -8.85910 | 13.23028 | 258 ft | 24 kts | 40° |
| 2026-04-20 17:41 | -8.85750 | 13.23059 | 258 ft | 24 kts | 1° |
| 2026-04-20 17:42 | -8.85588 | 13.23063 | 258 ft | 23 kts | 1° |
| 2026-04-20 17:42 | -8.85447 | 13.23067 | 259 ft | 15 kts | 1° |
| 2026-04-20 17:42 | -8.85348 | 13.23069 | 260 ft | 14 kts | 1° |
| 2026-04-20 17:42 | -8.85272 | 13.23071 | 260 ft | 10 kts | 1° |
| 2026-04-20 17:43 | -8.85186 | 13.23077 | 259 ft | 16 kts | 4° |
| 2026-04-20 17:43 | -8.85099 | 13.23121 | 259 ft | 9 kts | 50° |
| 2026-04-20 17:43 | -8.85070 | 13.23178 | 259 ft | 5 kts | 67° |
| 2026-04-20 17:43 | -8.85088 | 13.23202 | 259 ft | 5 kts | 167° |
| 2026-04-20 17:44 | -8.85124 | 13.23218 | 259 ft | 6 kts | 156° |
| 2026-04-20 17:44 | -8.85139 | 13.23224 | 259 ft | 2 kts | 157° |
| 2026-04-20 17:44 | -8.85140 | 13.23224 | 259 ft | 0 kts | 157° |